ボレ国際空港(アディスアベバ)の過去48時間の天気

ボレ国際空港(アディスアベバ) (Addis Ababa)

現在時刻: 9/23 00:23 EAT (9/22 21:23 UTC) 以下の時間は現地時間です。

過去48時間のMETAR気象情報
時間 風向 風速(m/s) 視程 気温(℃) 湿度(%) 気圧(hPa) 天気現象
23 00:00 北西 1 10km以上 15 82 1026
22 23:00 北東 2 10km以上 15 77 1027
22 21:00 北北西 2 10km以上 15 88 1026
22 19:00 西北西 2 10km以上 15 88 1025
22 18:00 西 3 10km以上 14 94 1025
22 16:00 北北東 5 6000m 13 94 1024
22 15:00 南南西 4 7000m 17 68 1024
22 14:00 西南西 4 10km以上 19 64 1025
22 12:00 南西 4 10km以上 16 88 1027
22 11:00 3 10km以上 15 88 1028 弱い雨
22 10:00 静穏 0 7000m 15 82 1028 弱い雨
22 09:00 西北西 3 6000m 14 88 1028
22 08:00 北東 1 10km以上 14 94 1028
22 06:00 西 2 10km以上 14 88 1026
22 02:00 北西 2 8000m 13 94 1025 弱い雨
22 00:00 西南西 3 10km以上 15 88 1026
21 22:00 3 10km以上 15 94 1026
21 21:00 南南西 2 10km以上 16 88 1025
21 14:00 北北西 5 8000m 15 77 1024 弱い雷雨
21 12:00 3 10km以上 19 73 1026
21 11:00 南南東 3 10km以上 17 83 1026
21 10:00 南南東 3 6000m 16 88 1027 もや
21 07:00 静穏 0 5000m 15 94 1025 もや
21 06:00 静穏 0 10km以上 15 94 1025
21 03:00 南東 2 10km以上 15 88 1024
21 02:00 南南西 2 10km以上 15 88 1023
21 01:00 1 10km以上 15 88 1024
HAAB 222100Z 32002KT 9999 BKN023 BKN080 15/12 Q1026
HAAB 222000Z 04003KT 9999 BKN023 BKN080 15/11 Q1027
HAAB 221800Z 34004KT 9999 BKN023 BKN080 15/13 Q1026
HAAB 221600Z 30004KT 9999 BKN023 OVC080 15/13 Q1025
HAAB 221500Z 27006KT 9999 FEW020 CB BKN023 BKN080 14/13 Q1025
HAAB 221300Z 03010KT 6000 RA FEW023 CB BKN025 BKN080 13/12 Q1024
HAAB 221200Z 21008KT 7000 RA FEW023 CB BKN025 BKN080 17/11 Q1024
HAAB 221100Z 24008KT 9999 BKN024 BKN080 19/12 Q1025
HAAB 220900Z 22008KT 9999 BKN024 BKN080 16/14 Q1027
HAAB 220800Z 18006KT 9999 -RA BKN024 BKN080 15/13 Q1028
HAAB 220700Z 00000KT 7000 -RA BKN024 BKN080 15/12 Q1028
HAAB 220600Z 29006KT 6000 RA BKN024 BKN080 14/12 Q1028
HAAB 220500Z 04002KT 9999 BKN024 BKN080 14/13 Q1028
HAAB 220300Z 27004KT 9999 BKN024 BKN080 14/12 Q1026
HAAB 212300Z 32004KT 8000M -RA BKN025 OVC070 13/12 Q1025
HAAB 212100Z 25005KT 9999 FEW024 CB SE BKN025 15/13 Q1026
HAAB 211900Z 18005KT 9999 BKN025 15/14 Q1026
HAAB 211800Z 20104KT 9999 SCT024 16/14 Q1025
HAAB 211100Z 34010KT 8000 -TSRA FEW023CB BKN025 BKN070 15/11 Q1024
HAAB 210900Z 19005KT 9999 BKN025 BKN070 19/14 Q1026
HAAB 210800Z 16005KT 9999 BKN025 BKN070 17/14 Q1026
HAAB 210700Z 16005KT 6000 BR BKN025 OVC070 16/14 Q1027
HAAB 210400Z 00000KT 5000 BR BKN025 OVC070 15/14 Q1025
HAAB 210300Z 00000KT 9999 BKN025 BKN070 15/14 Q1025
HAAB 210000Z 14004KT 9999 BKN025 BKN070 15/13 Q1024
HAAB 202300Z 21004KT 9999 BKN026 BKN080 15/13 Q1023
HAAB 202200Z 08002KT 9999 BKN026 BKN080 15/13 Q1024